sensor_id;sensor_type;location;lat;lon;timestamp;P1;durP1;ratioP1;P2;durP2;ratioP2
68976;SDS011;56029;52.568;13.588;2022-10-16T00:00:37;9.35;;;5.60;;
68976;SDS011;56029;52.568;13.588;2022-10-16T00:03:23;10.02;;;6.03;;
68976;SDS011;56029;52.568;13.588;2022-10-16T00:05:49;8.70;;;5.60;;
68976;SDS011;56029;52.568;13.588;2022-10-16T00:08:15;8.50;;;5.70;;
68976;SDS011;56029;52.568;13.588;2022-10-16T00:10:40;8.60;;;5.60;;
68976;SDS011;56029;52.568;13.588;2022-10-16T00:13:06;8.25;;;5.15;;
68976;SDS011;56029;52.568;13.588;2022-10-16T00:15:35;7.93;;;4.95;;
68976;SDS011;56029;52.568;13.588;2022-10-16T00:18:02;8.27;;;5.03;;
68976;SDS011;56029;52.568;13.588;2022-10-16T00:20:29;8.57;;;5.43;;
68976;SDS011;56029;52.568;13.588;2022-10-16T00:22:56;9.52;;;5.40;;
68976;SDS011;56029;52.568;13.588;2022-10-16T00:25:22;9.60;;;5.15;;
68976;SDS011;56029;52.568;13.588;2022-10-16T00:27:48;7.63;;;5.10;;
68976;SDS011;56029;52.568;13.588;2022-10-16T00:30:13;8.20;;;4.90;;
68976;SDS011;56029;52.568;13.588;2022-10-16T00:32:39;7.90;;;5.20;;
68976;SDS011;56029;52.568;13.588;2022-10-16T00:35:05;7.67;;;5.00;;
68976;SDS011;56029;52.568;13.588;2022-10-16T00:37:31;8.67;;;4.80;;
68976;SDS011;56029;52.568;13.588;2022-10-16T00:39:56;8.00;;;4.80;;
68976;SDS011;56029;52.568;13.588;2022-10-16T00:42:21;7.60;;;4.70;;
68976;SDS011;56029;52.568;13.588;2022-10-16T00:44:51;9.20;;;5.03;;
68976;SDS011;56029;52.568;13.588;2022-10-16T00:47:41;7.20;;;4.53;;
68976;SDS011;56029;52.568;13.588;2022-10-16T00:50:13;6.80;;;4.30;;
68976;SDS011;56029;52.568;13.588;2022-10-16T00:52:46;7.57;;;4.85;;
68976;SDS011;56029;52.568;13.588;2022-10-16T00:55:13;7.57;;;4.57;;
68976;SDS011;56029;52.568;13.588;2022-10-16T00:57:39;6.70;;;4.35;;
68976;SDS011;56029;52.568;13.588;2022-10-16T01:00:06;9.07;;;4.60;;
68976;SDS011;56029;52.568;13.588;2022-10-16T01:02:33;8.03;;;4.57;;
68976;SDS011;56029;52.568;13.588;2022-10-16T01:04:58;8.25;;;4.80;;
68976;SDS011;56029;52.568;13.588;2022-10-16T01:18:17;7.93;;;4.17;;
68976;SDS011;56029;52.568;13.588;2022-10-16T01:21:08;7.70;;;4.60;;
68976;SDS011;56029;52.568;13.588;2022-10-16T01:29:09;8.43;;;4.70;;
68976;SDS011;56029;52.568;13.588;2022-10-16T01:31:59;8.50;;;4.67;;
68976;SDS011;56029;52.568;13.588;2022-10-16T01:34:35;8.20;;;4.68;;
68976;SDS011;56029;52.568;13.588;2022-10-16T01:37:08;7.38;;;4.90;;
68976;SDS011;56029;52.568;13.588;2022-10-16T01:39:37;8.10;;;4.80;;
68976;SDS011;56029;52.568;13.588;2022-10-16T01:42:07;8.48;;;4.90;;
68976;SDS011;56029;52.568;13.588;2022-10-16T01:44:39;7.80;;;4.63;;
68976;SDS011;56029;52.568;13.588;2022-10-16T01:47:07;7.47;;;4.60;;
68976;SDS011;56029;52.568;13.588;2022-10-16T01:49:36;7.13;;;4.32;;
68976;SDS011;56029;52.568;13.588;2022-10-16T01:52:05;6.72;;;4.30;;
68976;SDS011;56029;52.568;13.588;2022-10-16T01:54:34;7.07;;;4.53;;
68976;SDS011;56029;52.568;13.588;2022-10-16T01:57:02;7.07;;;4.53;;
68976;SDS011;56029;52.568;13.588;2022-10-16T01:59:31;7.38;;;4.45;;
68976;SDS011;56029;52.568;13.588;2022-10-16T02:02:04;7.22;;;4.40;;
68976;SDS011;56029;52.568;13.588;2022-10-16T02:04:43;7.32;;;4.40;;
68976;SDS011;56029;52.568;13.588;2022-10-16T02:07:11;7.28;;;4.03;;
68976;SDS011;56029;52.568;13.588;2022-10-16T02:09:37;7.43;;;4.43;;
68976;SDS011;56029;52.568;13.588;2022-10-16T02:12:06;8.52;;;4.32;;
68976;SDS011;56029;52.568;13.588;2022-10-16T02:14:38;8.38;;;4.30;;
68976;SDS011;56029;52.568;13.588;2022-10-16T02:17:14;7.38;;;4.03;;
68976;SDS011;56029;52.568;13.588;2022-10-16T02:19:42;7.00;;;4.13;;
68976;SDS011;56029;52.568;13.588;2022-10-16T02:22:12;6.63;;;4.10;;
68976;SDS011;56029;52.568;13.588;2022-10-16T02:24:52;7.22;;;4.45;;
68976;SDS011;56029;52.568;13.588;2022-10-16T02:27:26;7.90;;;4.00;;
68976;SDS011;56029;52.568;13.588;2022-10-16T02:29:59;6.53;;;3.83;;
68976;SDS011;56029;52.568;13.588;2022-10-16T02:32:33;7.55;;;4.20;;
68976;SDS011;56029;52.568;13.588;2022-10-16T02:34:59;6.70;;;3.97;;
68976;SDS011;56029;52.568;13.588;2022-10-16T02:37:26;6.03;;;3.75;;
68976;SDS011;56029;52.568;13.588;2022-10-16T02:39:53;6.40;;;3.72;;
68976;SDS011;56029;52.568;13.588;2022-10-16T02:42:20;6.65;;;3.85;;
68976;SDS011;56029;52.568;13.588;2022-10-16T02:44:45;6.27;;;4.00;;
68976;SDS011;56029;52.568;13.588;2022-10-16T02:47:11;6.50;;;4.00;;
68976;SDS011;56029;52.568;13.588;2022-10-16T02:49:37;5.87;;;3.77;;
68976;SDS011;56029;52.568;13.588;2022-10-16T02:52:04;7.07;;;3.55;;
68976;SDS011;56029;52.568;13.588;2022-10-16T02:54:30;5.73;;;3.57;;
68976;SDS011;56029;52.568;13.588;2022-10-16T02:56:55;6.40;;;3.87;;
68976;SDS011;56029;52.568;13.588;2022-10-16T02:59:21;6.30;;;3.80;;
68976;SDS011;56029;52.568;13.588;2022-10-16T03:01:46;5.43;;;3.43;;
68976;SDS011;56029;52.568;13.588;2022-10-16T03:04:12;6.18;;;3.55;;
68976;SDS011;56029;52.568;13.588;2022-10-16T03:06:37;6.03;;;3.63;;
68976;SDS011;56029;52.568;13.588;2022-10-16T03:09:03;6.57;;;3.33;;
68976;SDS011;56029;52.568;13.588;2022-10-16T03:11:28;6.40;;;3.30;;
68976;SDS011;56029;52.568;13.588;2022-10-16T03:13:54;6.60;;;3.53;;
68976;SDS011;56029;52.568;13.588;2022-10-16T03:16:19;6.47;;;3.40;;
68976;SDS011;56029;52.568;13.588;2022-10-16T03:18:47;4.95;;;3.22;;
68976;SDS011;56029;52.568;13.588;2022-10-16T03:21:15;6.03;;;3.30;;
68976;SDS011;56029;52.568;13.588;2022-10-16T03:23:42;6.40;;;3.28;;
68976;SDS011;56029;52.568;13.588;2022-10-16T03:26:07;5.67;;;3.40;;
68976;SDS011;56029;52.568;13.588;2022-10-16T03:28:33;5.75;;;3.20;;
68976;SDS011;56029;52.568;13.588;2022-10-16T03:30:58;5.27;;;3.00;;
68976;SDS011;56029;52.568;13.588;2022-10-16T03:33:24;5.57;;;3.23;;
68976;SDS011;56029;52.568;13.588;2022-10-16T03:35:52;4.88;;;2.90;;
68976;SDS011;56029;52.568;13.588;2022-10-16T03:38:19;5.87;;;2.90;;
68976;SDS011;56029;52.568;13.588;2022-10-16T03:40:46;4.85;;;3.00;;
68976;SDS011;56029;52.568;13.588;2022-10-16T03:43:11;6.00;;;3.53;;
68976;SDS011;56029;52.568;13.588;2022-10-16T03:45:37;5.67;;;3.10;;
68976;SDS011;56029;52.568;13.588;2022-10-16T03:48:02;7.20;;;3.33;;
68976;SDS011;56029;52.568;13.588;2022-10-16T03:50:28;4.72;;;3.08;;
68976;SDS011;56029;52.568;13.588;2022-10-16T03:52:54;5.70;;;3.08;;
68976;SDS011;56029;52.568;13.588;2022-10-16T03:55:20;5.90;;;3.30;;
68976;SDS011;56029;52.568;13.588;2022-10-16T03:57:46;6.13;;;3.28;;
68976;SDS011;56029;52.568;13.588;2022-10-16T04:00:11;5.27;;;3.20;;
68976;SDS011;56029;52.568;13.588;2022-10-16T04:02:38;5.32;;;3.35;;
68976;SDS011;56029;52.568;13.588;2022-10-16T04:05:03;6.13;;;3.47;;
68976;SDS011;56029;52.568;13.588;2022-10-16T04:07:29;6.22;;;3.22;;
68976;SDS011;56029;52.568;13.588;2022-10-16T04:09:55;4.93;;;3.10;;
68976;SDS011;56029;52.568;13.588;2022-10-16T04:12:22;6.20;;;3.15;;
68976;SDS011;56029;52.568;13.588;2022-10-16T04:14:47;6.00;;;3.60;;
68976;SDS011;56029;52.568;13.588;2022-10-16T04:17:13;6.43;;;3.35;;
68976;SDS011;56029;52.568;13.588;2022-10-16T04:19:38;6.63;;;3.50;;
68976;SDS011;56029;52.568;13.588;2022-10-16T04:22:04;5.80;;;3.53;;
68976;SDS011;56029;52.568;13.588;2022-10-16T04:24:29;5.70;;;3.40;;
68976;SDS011;56029;52.568;13.588;2022-10-16T04:26:55;7.33;;;3.50;;
68976;SDS011;56029;52.568;13.588;2022-10-16T04:29:20;6.13;;;3.30;;
68976;SDS011;56029;52.568;13.588;2022-10-16T04:31:46;7.55;;;3.40;;
68976;SDS011;56029;52.568;13.588;2022-10-16T04:34:12;5.87;;;3.40;;
68976;SDS011;56029;52.568;13.588;2022-10-16T04:36:37;6.63;;;3.60;;
68976;SDS011;56029;52.568;13.588;2022-10-16T04:39:02;5.37;;;3.40;;
68976;SDS011;56029;52.568;13.588;2022-10-16T04:41:28;7.07;;;3.90;;
68976;SDS011;56029;52.568;13.588;2022-10-16T04:43:53;6.63;;;3.70;;
68976;SDS011;56029;52.568;13.588;2022-10-16T04:46:19;6.68;;;3.90;;
68976;SDS011;56029;52.568;13.588;2022-10-16T04:48:44;6.27;;;3.63;;
68976;SDS011;56029;52.568;13.588;2022-10-16T04:51:12;6.30;;;3.53;;
68976;SDS011;56029;52.568;13.588;2022-10-16T04:53:37;7.70;;;3.90;;
68976;SDS011;56029;52.568;13.588;2022-10-16T04:56:03;5.70;;;3.38;;
68976;SDS011;56029;52.568;13.588;2022-10-16T04:58:29;7.60;;;3.60;;
68976;SDS011;56029;52.568;13.588;2022-10-16T05:00:54;6.80;;;3.80;;
68976;SDS011;56029;52.568;13.588;2022-10-16T05:03:20;6.87;;;3.77;;
68976;SDS011;56029;52.568;13.588;2022-10-16T05:05:45;5.73;;;3.33;;
68976;SDS011;56029;52.568;13.588;2022-10-16T05:08:12;6.37;;;3.67;;
68976;SDS011;56029;52.568;13.588;2022-10-16T05:10:40;7.28;;;3.92;;
68976;SDS011;56029;52.568;13.588;2022-10-16T05:13:06;6.55;;;3.50;;
68976;SDS011;56029;52.568;13.588;2022-10-16T05:15:32;6.47;;;3.72;;
68976;SDS011;56029;52.568;13.588;2022-10-16T05:17:58;6.43;;;3.90;;
68976;SDS011;56029;52.568;13.588;2022-10-16T05:20:23;6.53;;;3.50;;
68976;SDS011;56029;52.568;13.588;2022-10-16T05:22:49;6.97;;;3.90;;
68976;SDS011;56029;52.568;13.588;2022-10-16T05:25:15;6.53;;;3.87;;
68976;SDS011;56029;52.568;13.588;2022-10-16T05:27:41;6.75;;;3.70;;
68976;SDS011;56029;52.568;13.588;2022-10-16T05:30:06;9.80;;;4.50;;
68976;SDS011;56029;52.568;13.588;2022-10-16T05:32:32;6.35;;;3.80;;
68976;SDS011;56029;52.568;13.588;2022-10-16T05:34:58;6.82;;;3.78;;
68976;SDS011;56029;52.568;13.588;2022-10-16T05:37:25;8.73;;;4.17;;
68976;SDS011;56029;52.568;13.588;2022-10-16T05:39:52;8.20;;;4.40;;
68976;SDS011;56029;52.568;13.588;2022-10-16T05:42:18;6.83;;;3.87;;
68976;SDS011;56029;52.568;13.588;2022-10-16T05:44:44;7.07;;;3.90;;
68976;SDS011;56029;52.568;13.588;2022-10-16T05:47:09;7.80;;;3.92;;
68976;SDS011;56029;52.568;13.588;2022-10-16T05:49:36;7.70;;;3.95;;
68976;SDS011;56029;52.568;13.588;2022-10-16T05:52:01;7.30;;;4.10;;
68976;SDS011;56029;52.568;13.588;2022-10-16T05:54:27;7.03;;;3.97;;
68976;SDS011;56029;52.568;13.588;2022-10-16T05:56:52;6.65;;;3.90;;
68976;SDS011;56029;52.568;13.588;2022-10-16T05:59:18;7.47;;;3.93;;
68976;SDS011;56029;52.568;13.588;2022-10-16T06:01:43;6.53;;;3.83;;
68976;SDS011;56029;52.568;13.588;2022-10-16T06:04:09;7.22;;;3.75;;
68976;SDS011;56029;52.568;13.588;2022-10-16T06:06:34;6.33;;;3.70;;
68976;SDS011;56029;52.568;13.588;2022-10-16T06:09:01;7.53;;;4.00;;
68976;SDS011;56029;52.568;13.588;2022-10-16T06:11:28;7.73;;;3.80;;
68976;SDS011;56029;52.568;13.588;2022-10-16T06:13:56;6.63;;;3.67;;
68976;SDS011;56029;52.568;13.588;2022-10-16T06:16:23;9.05;;;4.25;;
68976;SDS011;56029;52.568;13.588;2022-10-16T06:18:50;8.57;;;4.60;;
68976;SDS011;56029;52.568;13.588;2022-10-16T06:21:17;8.02;;;4.28;;
68976;SDS011;56029;52.568;13.588;2022-10-16T06:23:44;7.27;;;4.00;;
68976;SDS011;56029;52.568;13.588;2022-10-16T06:26:12;6.38;;;4.00;;
68976;SDS011;56029;52.568;13.588;2022-10-16T06:28:40;7.15;;;4.20;;
68976;SDS011;56029;52.568;13.588;2022-10-16T06:31:06;8.13;;;4.47;;
68976;SDS011;56029;52.568;13.588;2022-10-16T06:33:33;6.90;;;4.20;;
68976;SDS011;56029;52.568;13.588;2022-10-16T06:36:02;7.03;;;4.20;;
68976;SDS011;56029;52.568;13.588;2022-10-16T06:38:29;7.50;;;4.28;;
68976;SDS011;56029;52.568;13.588;2022-10-16T06:40:55;7.88;;;4.60;;
68976;SDS011;56029;52.568;13.588;2022-10-16T06:43:21;7.10;;;4.40;;
68976;SDS011;56029;52.568;13.588;2022-10-16T06:45:51;6.82;;;4.25;;
68976;SDS011;56029;52.568;13.588;2022-10-16T06:48:25;7.07;;;3.90;;
68976;SDS011;56029;52.568;13.588;2022-10-16T06:50:58;6.30;;;3.60;;
68976;SDS011;56029;52.568;13.588;2022-10-16T06:53:34;6.82;;;3.90;;
68976;SDS011;56029;52.568;13.588;2022-10-16T06:56:11;6.93;;;3.80;;
68976;SDS011;56029;52.568;13.588;2022-10-16T06:58:39;6.63;;;3.95;;
68976;SDS011;56029;52.568;13.588;2022-10-16T07:01:05;6.63;;;3.80;;
68976;SDS011;56029;52.568;13.588;2022-10-16T07:03:32;6.03;;;3.53;;
68976;SDS011;56029;52.568;13.588;2022-10-16T07:06:01;6.40;;;3.80;;
68976;SDS011;56029;52.568;13.588;2022-10-16T07:08:30;6.55;;;3.90;;
68976;SDS011;56029;52.568;13.588;2022-10-16T07:11:00;7.53;;;3.40;;
68976;SDS011;56029;52.568;13.588;2022-10-16T07:13:26;5.75;;;3.38;;
68976;SDS011;56029;52.568;13.588;2022-10-16T07:15:52;6.07;;;3.37;;
68976;SDS011;56029;52.568;13.588;2022-10-16T07:18:18;5.28;;;3.20;;
68976;SDS011;56029;52.568;13.588;2022-10-16T07:20:43;5.37;;;3.50;;
68976;SDS011;56029;52.568;13.588;2022-10-16T07:23:09;5.83;;;3.33;;
68976;SDS011;56029;52.568;13.588;2022-10-16T07:25:34;5.05;;;3.13;;
68976;SDS011;56029;52.568;13.588;2022-10-16T07:28:00;4.97;;;3.40;;
68976;SDS011;56029;52.568;13.588;2022-10-16T07:30:25;5.73;;;3.03;;
68976;SDS011;56029;52.568;13.588;2022-10-16T07:32:51;5.47;;;3.40;;
68976;SDS011;56029;52.568;13.588;2022-10-16T07:35:16;5.40;;;3.40;;
68976;SDS011;56029;52.568;13.588;2022-10-16T07:37:45;5.47;;;3.10;;
68976;SDS011;56029;52.568;13.588;2022-10-16T07:40:11;5.60;;;3.17;;
68976;SDS011;56029;52.568;13.588;2022-10-16T07:42:37;6.65;;;3.20;;
68976;SDS011;56029;52.568;13.588;2022-10-16T07:45:02;4.90;;;3.03;;
68976;SDS011;56029;52.568;13.588;2022-10-16T07:47:28;5.43;;;3.03;;
68976;SDS011;56029;52.568;13.588;2022-10-16T07:49:54;5.63;;;3.20;;
68976;SDS011;56029;52.568;13.588;2022-10-16T07:52:19;4.30;;;2.83;;
68976;SDS011;56029;52.568;13.588;2022-10-16T07:54:45;5.25;;;2.85;;
68976;SDS011;56029;52.568;13.588;2022-10-16T07:57:10;5.20;;;2.63;;
68976;SDS011;56029;52.568;13.588;2022-10-16T07:59:36;4.63;;;2.87;;
68976;SDS011;56029;52.568;13.588;2022-10-16T08:02:01;3.85;;;2.78;;
68976;SDS011;56029;52.568;13.588;2022-10-16T08:04:27;4.23;;;2.77;;
68976;SDS011;56029;52.568;13.588;2022-10-16T08:06:52;5.37;;;2.93;;
68976;SDS011;56029;52.568;13.588;2022-10-16T08:09:19;3.85;;;2.80;;
68976;SDS011;56029;52.568;13.588;2022-10-16T08:11:45;4.20;;;2.78;;
68976;SDS011;56029;52.568;13.588;2022-10-16T08:14:10;4.10;;;2.80;;
68976;SDS011;56029;52.568;13.588;2022-10-16T08:16:36;4.70;;;3.00;;
68976;SDS011;56029;52.568;13.588;2022-10-16T08:19:01;4.03;;;2.70;;
68976;SDS011;56029;52.568;13.588;2022-10-16T08:21:27;6.43;;;2.93;;
68976;SDS011;56029;52.568;13.588;2022-10-16T08:23:53;3.97;;;2.67;;
68976;SDS011;56029;52.568;13.588;2022-10-16T08:26:20;4.67;;;2.70;;
68976;SDS011;56029;52.568;13.588;2022-10-16T08:28:45;4.53;;;2.92;;
68976;SDS011;56029;52.568;13.588;2022-10-16T08:31:14;4.38;;;2.78;;
68976;SDS011;56029;52.568;13.588;2022-10-16T08:33:41;6.33;;;3.10;;
68976;SDS011;56029;52.568;13.588;2022-10-16T08:36:08;3.80;;;2.70;;
68976;SDS011;56029;52.568;13.588;2022-10-16T08:38:35;3.50;;;2.40;;
68976;SDS011;56029;52.568;13.588;2022-10-16T08:41:15;3.72;;;2.40;;
68976;SDS011;56029;52.568;13.588;2022-10-16T08:43:58;3.20;;;2.22;;
68976;SDS011;56029;52.568;13.588;2022-10-16T08:46:41;3.50;;;2.30;;
68976;SDS011;56029;52.568;13.588;2022-10-16T08:49:19;3.22;;;2.33;;
68976;SDS011;56029;52.568;13.588;2022-10-16T08:51:45;3.35;;;2.28;;
68976;SDS011;56029;52.568;13.588;2022-10-16T08:56:53;4.33;;;2.47;;
68976;SDS011;56029;52.568;13.588;2022-10-16T08:59:19;3.10;;;2.22;;
68976;SDS011;56029;52.568;13.588;2022-10-16T09:01:46;3.83;;;2.30;;
68976;SDS011;56029;52.568;13.588;2022-10-16T09:12:38;3.10;;;2.08;;
68976;SDS011;56029;52.568;13.588;2022-10-16T09:18:11;3.30;;;2.33;;
68976;SDS011;56029;52.568;13.588;2022-10-16T09:20:55;3.90;;;2.50;;
68976;SDS011;56029;52.568;13.588;2022-10-16T09:23:35;2.83;;;2.10;;
68976;SDS011;56029;52.568;13.588;2022-10-16T09:26:02;5.22;;;2.50;;
68976;SDS011;56029;52.568;13.588;2022-10-16T09:28:29;4.10;;;2.40;;
68976;SDS011;56029;52.568;13.588;2022-10-16T09:30:54;6.00;;;2.50;;
68976;SDS011;56029;52.568;13.588;2022-10-16T09:33:21;5.18;;;2.35;;
68976;SDS011;56029;52.568;13.588;2022-10-16T09:35:50;3.20;;;2.30;;
68976;SDS011;56029;52.568;13.588;2022-10-16T09:38:25;3.70;;;2.30;;
68976;SDS011;56029;52.568;13.588;2022-10-16T09:40:53;4.90;;;2.53;;
68976;SDS011;56029;52.568;13.588;2022-10-16T09:43:21;4.20;;;2.40;;
68976;SDS011;56029;52.568;13.588;2022-10-16T09:46:04;4.28;;;2.40;;
68976;SDS011;56029;52.568;13.588;2022-10-16T09:48:43;5.40;;;2.30;;
68976;SDS011;56029;52.568;13.588;2022-10-16T09:51:18;4.18;;;2.60;;
68976;SDS011;56029;52.568;13.588;2022-10-16T09:53:47;3.90;;;2.42;;
68976;SDS011;56029;52.568;13.588;2022-10-16T09:56:32;3.83;;;2.60;;
68976;SDS011;56029;52.568;13.588;2022-10-16T09:59:00;4.75;;;2.75;;
68976;SDS011;56029;52.568;13.588;2022-10-16T10:01:38;4.63;;;2.53;;
68976;SDS011;56029;52.568;13.588;2022-10-16T10:04:06;3.97;;;2.50;;
68976;SDS011;56029;52.568;13.588;2022-10-16T10:06:51;4.35;;;2.67;;
68976;SDS011;56029;52.568;13.588;2022-10-16T10:14:24;3.27;;;2.50;;
68976;SDS011;56029;52.568;13.588;2022-10-16T10:17:16;2.83;;;2.30;;
68976;SDS011;56029;52.568;13.588;2022-10-16T10:19:49;4.25;;;2.58;;
68976;SDS011;56029;52.568;13.588;2022-10-16T10:22:39;3.83;;;2.40;;
68976;SDS011;56029;52.568;13.588;2022-10-16T10:25:14;3.92;;;2.40;;
68976;SDS011;56029;52.568;13.588;2022-10-16T10:30:50;4.38;;;2.40;;
68976;SDS011;56029;52.568;13.588;2022-10-16T10:39:08;8.30;;;5.22;;
68976;SDS011;56029;52.568;13.588;2022-10-16T10:56:05;4.17;;;2.20;;
68976;SDS011;56029;52.568;13.588;2022-10-16T11:01:44;6.55;;;4.10;;
68976;SDS011;56029;52.568;13.588;2022-10-16T11:07:21;3.08;;;1.90;;
68976;SDS011;56029;52.568;13.588;2022-10-16T11:10:05;3.23;;;2.00;;
68976;SDS011;56029;52.568;13.588;2022-10-16T11:12:39;2.95;;;1.83;;
68976;SDS011;56029;52.568;13.588;2022-10-16T11:15:25;2.83;;;1.70;;
68976;SDS011;56029;52.568;13.588;2022-10-16T11:18:06;3.65;;;1.73;;
68976;SDS011;56029;52.568;13.588;2022-10-16T11:21:00;2.88;;;1.90;;
68976;SDS011;56029;52.568;13.588;2022-10-16T11:26:32;3.15;;;1.70;;
68976;SDS011;56029;52.568;13.588;2022-10-16T11:29:01;2.92;;;1.65;;
68976;SDS011;56029;52.568;13.588;2022-10-16T11:31:37;2.72;;;1.70;;
68976;SDS011;56029;52.568;13.588;2022-10-16T11:36:53;2.40;;;1.70;;
68976;SDS011;56029;52.568;13.588;2022-10-16T11:39:26;2.75;;;1.77;;
68976;SDS011;56029;52.568;13.588;2022-10-16T11:44:53;3.05;;;1.75;;
68976;SDS011;56029;52.568;13.588;2022-10-16T11:56:04;2.70;;;2.00;;
68976;SDS011;56029;52.568;13.588;2022-10-16T11:58:38;2.30;;;1.80;;
68976;SDS011;56029;52.568;13.588;2022-10-16T12:08:59;3.75;;;1.90;;
68976;SDS011;56029;52.568;13.588;2022-10-16T12:16:50;3.00;;;1.40;;
68976;SDS011;56029;52.568;13.588;2022-10-16T12:19:29;2.65;;;1.50;;
68976;SDS011;56029;52.568;13.588;2022-10-16T12:21:56;2.97;;;1.40;;
68976;SDS011;56029;52.568;13.588;2022-10-16T12:24:34;2.60;;;1.40;;
68976;SDS011;56029;52.568;13.588;2022-10-16T12:27:02;3.28;;;1.50;;
68976;SDS011;56029;52.568;13.588;2022-10-16T12:29:41;2.33;;;1.30;;
68976;SDS011;56029;52.568;13.588;2022-10-16T12:35:02;1.55;;;1.25;;
68976;SDS011;56029;52.568;13.588;2022-10-16T12:37:34;1.60;;;1.20;;
68976;SDS011;56029;52.568;13.588;2022-10-16T12:40:15;1.67;;;1.20;;
68976;SDS011;56029;52.568;13.588;2022-10-16T12:42:59;1.73;;;1.20;;
68976;SDS011;56029;52.568;13.588;2022-10-16T12:45:39;2.08;;;1.20;;
68976;SDS011;56029;52.568;13.588;2022-10-16T12:48:17;1.67;;;1.30;;
68976;SDS011;56029;52.568;13.588;2022-10-16T12:50:45;1.27;;;1.02;;
68976;SDS011;56029;52.568;13.588;2022-10-16T12:53:18;1.77;;;1.20;;
68976;SDS011;56029;52.568;13.588;2022-10-16T12:56:02;2.95;;;1.08;;
68976;SDS011;56029;52.568;13.588;2022-10-16T13:01:21;1.73;;;1.05;;
68976;SDS011;56029;52.568;13.588;2022-10-16T13:09:47;1.33;;;1.10;;
68976;SDS011;56029;52.568;13.588;2022-10-16T13:15:52;1.67;;;1.10;;
68976;SDS011;56029;52.568;13.588;2022-10-16T13:18:45;1.47;;;1.00;;
68976;SDS011;56029;52.568;13.588;2022-10-16T13:21:17;1.17;;;1.00;;
68976;SDS011;56029;52.568;13.588;2022-10-16T13:29:14;1.20;;;1.00;;
68976;SDS011;56029;52.568;13.588;2022-10-16T13:31:40;1.20;;;0.93;;
68976;SDS011;56029;52.568;13.588;2022-10-16T13:34:11;1.45;;;1.17;;
68976;SDS011;56029;52.568;13.588;2022-10-16T13:36:47;1.08;;;0.93;;
68976;SDS011;56029;52.568;13.588;2022-10-16T13:39:24;5.15;;;3.05;;
68976;SDS011;56029;52.568;13.588;2022-10-16T13:42:25;5.32;;;3.75;;
68976;SDS011;56029;52.568;13.588;2022-10-16T13:44:50;1.90;;;1.70;;
68976;SDS011;56029;52.568;13.588;2022-10-16T13:47:19;2.00;;;1.00;;
68976;SDS011;56029;52.568;13.588;2022-10-16T13:49:44;1.48;;;1.00;;
68976;SDS011;56029;52.568;13.588;2022-10-16T13:52:17;1.15;;;0.90;;
68976;SDS011;56029;52.568;13.588;2022-10-16T13:54:44;1.33;;;0.98;;
68976;SDS011;56029;52.568;13.588;2022-10-16T13:57:13;1.27;;;0.90;;
68976;SDS011;56029;52.568;13.588;2022-10-16T13:59:40;1.58;;;1.00;;
68976;SDS011;56029;52.568;13.588;2022-10-16T14:04:44;1.45;;;1.17;;
68976;SDS011;56029;52.568;13.588;2022-10-16T14:07:13;1.25;;;0.90;;
68976;SDS011;56029;52.568;13.588;2022-10-16T14:09:41;2.10;;;1.30;;
68976;SDS011;56029;52.568;13.588;2022-10-16T14:12:08;1.17;;;1.08;;
68976;SDS011;56029;52.568;13.588;2022-10-16T14:14:41;2.50;;;1.10;;
68976;SDS011;56029;52.568;13.588;2022-10-16T14:17:48;3.23;;;2.03;;
68976;SDS011;56029;52.568;13.588;2022-10-16T14:20:02;1.83;;;1.20;;
68976;SDS011;56029;52.568;13.588;2022-10-16T14:22:34;2.67;;;1.10;;
68976;SDS011;56029;52.568;13.588;2022-10-16T14:25:13;2.38;;;1.58;;
68976;SDS011;56029;52.568;13.588;2022-10-16T14:27:45;2.55;;;1.10;;
68976;SDS011;56029;52.568;13.588;2022-10-16T14:30:24;2.43;;;1.10;;
68976;SDS011;56029;52.568;13.588;2022-10-16T14:33:33;2.13;;;1.02;;
68976;SDS011;56029;52.568;13.588;2022-10-16T14:35:46;1.48;;;1.10;;
68976;SDS011;56029;52.568;13.588;2022-10-16T14:38:17;2.07;;;1.40;;
68976;SDS011;56029;52.568;13.588;2022-10-16T14:40:46;1.88;;;1.10;;
68976;SDS011;56029;52.568;13.588;2022-10-16T14:43:14;1.95;;;1.30;;
68976;SDS011;56029;52.568;13.588;2022-10-16T14:45:49;1.42;;;1.00;;
68976;SDS011;56029;52.568;13.588;2022-10-16T14:48:17;4.10;;;1.33;;
68976;SDS011;56029;52.568;13.588;2022-10-16T14:50:44;2.60;;;1.70;;
68976;SDS011;56029;52.568;13.588;2022-10-16T14:53:13;2.00;;;1.40;;
68976;SDS011;56029;52.568;13.588;2022-10-16T14:55:40;2.47;;;1.80;;
68976;SDS011;56029;52.568;13.588;2022-10-16T14:58:20;1.73;;;1.10;;
68976;SDS011;56029;52.568;13.588;2022-10-16T15:00:47;2.60;;;1.20;;
68976;SDS011;56029;52.568;13.588;2022-10-16T15:03:13;2.88;;;2.00;;
68976;SDS011;56029;52.568;13.588;2022-10-16T15:05:38;2.80;;;1.20;;
68976;SDS011;56029;52.568;13.588;2022-10-16T15:08:04;1.70;;;1.27;;
68976;SDS011;56029;52.568;13.588;2022-10-16T15:10:30;3.03;;;1.40;;
68976;SDS011;56029;52.568;13.588;2022-10-16T15:12:58;2.13;;;1.55;;
68976;SDS011;56029;52.568;13.588;2022-10-16T15:18:00;1.95;;;1.20;;
68976;SDS011;56029;52.568;13.588;2022-10-16T15:20:28;2.22;;;1.30;;
68976;SDS011;56029;52.568;13.588;2022-10-16T15:22:56;3.10;;;1.35;;
68976;SDS011;56029;52.568;13.588;2022-10-16T15:25:26;1.73;;;1.30;;
68976;SDS011;56029;52.568;13.588;2022-10-16T15:27:55;1.63;;;1.30;;
68976;SDS011;56029;52.568;13.588;2022-10-16T15:30:21;1.73;;;1.50;;
68976;SDS011;56029;52.568;13.588;2022-10-16T15:32:47;2.63;;;1.50;;
68976;SDS011;56029;52.568;13.588;2022-10-16T15:35:12;2.80;;;1.40;;
68976;SDS011;56029;52.568;13.588;2022-10-16T15:37:38;1.83;;;1.30;;
68976;SDS011;56029;52.568;13.588;2022-10-16T15:40:03;1.50;;;1.20;;
68976;SDS011;56029;52.568;13.588;2022-10-16T15:42:29;2.00;;;1.50;;
68976;SDS011;56029;52.568;13.588;2022-10-16T15:44:54;1.87;;;1.30;;
68976;SDS011;56029;52.568;13.588;2022-10-16T15:47:20;3.93;;;1.40;;
68976;SDS011;56029;52.568;13.588;2022-10-16T15:49:45;2.35;;;1.30;;
68976;SDS011;56029;52.568;13.588;2022-10-16T15:52:11;1.87;;;1.30;;
68976;SDS011;56029;52.568;13.588;2022-10-16T15:54:37;3.87;;;1.53;;
68976;SDS011;56029;52.568;13.588;2022-10-16T15:57:02;2.58;;;1.67;;
68976;SDS011;56029;52.568;13.588;2022-10-16T15:59:28;2.37;;;1.60;;
68976;SDS011;56029;52.568;13.588;2022-10-16T16:01:56;3.08;;;1.60;;
68976;SDS011;56029;52.568;13.588;2022-10-16T16:04:22;2.50;;;1.60;;
68976;SDS011;56029;52.568;13.588;2022-10-16T16:06:48;2.90;;;1.40;;
68976;SDS011;56029;52.568;13.588;2022-10-16T16:09:14;2.75;;;1.42;;
68976;SDS011;56029;52.568;13.588;2022-10-16T16:11:40;2.03;;;1.40;;
68976;SDS011;56029;52.568;13.588;2022-10-16T16:14:06;4.15;;;1.45;;
68976;SDS011;56029;52.568;13.588;2022-10-16T16:16:32;5.82;;;1.50;;
68976;SDS011;56029;52.568;13.588;2022-10-16T16:19:03;2.13;;;1.40;;
68976;SDS011;56029;52.568;13.588;2022-10-16T16:21:31;4.00;;;1.73;;
68976;SDS011;56029;52.568;13.588;2022-10-16T16:23:57;3.35;;;1.90;;
68976;SDS011;56029;52.568;13.588;2022-10-16T16:26:23;4.63;;;2.20;;
68976;SDS011;56029;52.568;13.588;2022-10-16T16:28:54;4.13;;;2.33;;
68976;SDS011;56029;52.568;13.588;2022-10-16T16:31:23;3.90;;;2.30;;
68976;SDS011;56029;52.568;13.588;2022-10-16T16:33:50;4.90;;;2.50;;
68976;SDS011;56029;52.568;13.588;2022-10-16T16:36:16;4.93;;;2.55;;
68976;SDS011;56029;52.568;13.588;2022-10-16T16:38:45;4.68;;;2.47;;
68976;SDS011;56029;52.568;13.588;2022-10-16T16:41:12;5.33;;;2.30;;
68976;SDS011;56029;52.568;13.588;2022-10-16T16:43:42;3.88;;;2.40;;
68976;SDS011;56029;52.568;13.588;2022-10-16T16:46:09;4.82;;;2.38;;